createdAt,value
2023-06-26T00:04:25.812Z,15.2
2023-06-26T00:09:25.786Z,15.0
2023-06-26T00:14:25.784Z,15.1
2023-06-26T00:19:25.712Z,15.2
2023-06-26T00:24:25.760Z,15.1
2023-06-26T00:29:25.657Z,15.1
2023-06-26T00:34:25.781Z,15.1
2023-06-26T00:39:25.549Z,15.2
2023-06-26T00:44:25.531Z,15.1
2023-06-26T00:59:25.328Z,14.8
2023-06-26T01:04:25.276Z,14.8
2023-06-26T01:09:25.196Z,14.7
2023-06-26T01:14:25.138Z,14.9
2023-06-26T01:19:25.007Z,14.6
2023-06-26T01:24:24.986Z,14.8
2023-06-26T01:29:24.917Z,14.5
2023-06-26T01:34:24.867Z,14.6
2023-06-26T01:39:24.835Z,14.6
2023-06-26T01:44:24.723Z,14.4
2023-06-26T01:49:24.575Z,14.4
2023-06-26T01:54:24.477Z,14.4
2023-06-26T01:59:24.329Z,14.4
2023-06-26T02:04:24.269Z,14.4
2023-06-26T02:09:24.114Z,14.2
2023-06-26T02:19:23.879Z,14.1
2023-06-26T02:24:23.757Z,14.1
2023-06-26T02:29:23.617Z,14.1
2023-06-26T02:44:23.523Z,14.2
2023-06-26T02:49:23.736Z,13.9
2023-06-26T02:59:23.091Z,14.0
2023-06-26T03:04:23.054Z,13.8
2023-06-26T03:09:23.195Z,13.9
2023-06-26T03:14:22.702Z,13.8
2023-06-26T03:19:22.579Z,13.8
2023-06-26T03:24:22.461Z,13.8
2023-06-26T03:39:22.122Z,13.7
2023-06-26T03:49:21.956Z,13.7
2023-06-26T03:54:21.764Z,13.6
2023-06-26T04:19:21.049Z,13.7
2023-06-26T04:24:20.901Z,13.6
2023-06-26T04:29:20.817Z,13.6
2023-06-26T04:34:20.670Z,13.6
2023-06-26T04:44:20.438Z,13.6
2023-06-26T04:49:20.221Z,13.8
2023-06-26T04:54:20.119Z,13.9
2023-06-26T04:59:19.906Z,13.9
2023-06-26T05:04:19.816Z,13.9
2023-06-26T05:09:19.660Z,14.0
2023-06-26T05:14:19.623Z,14.1
2023-06-26T05:19:19.477Z,14.2
2023-06-26T05:24:19.376Z,14.2
2023-06-26T05:29:19.236Z,14.4
2023-06-26T05:34:19.164Z,14.5
2023-06-26T05:39:19.000Z,14.6
2023-06-26T05:44:18.896Z,14.7
2023-06-26T05:49:18.765Z,14.7
2023-06-26T05:54:18.701Z,14.8
2023-06-26T05:59:18.686Z,14.9
2023-06-26T06:04:18.571Z,15.1
2023-06-26T06:14:18.338Z,15.2
2023-06-26T06:19:18.256Z,15.4
2023-06-26T06:24:18.225Z,15.4
2023-06-26T06:29:18.166Z,15.4
2023-06-26T06:34:18.084Z,15.6
2023-06-26T06:39:17.967Z,15.8
2023-06-26T06:44:17.888Z,15.7
2023-06-26T06:49:17.892Z,15.9
2023-06-26T06:54:17.843Z,16.1
2023-06-26T06:59:17.798Z,16.1
2023-06-26T07:04:17.911Z,16.2
2023-06-26T07:09:17.811Z,16.4
2023-06-26T07:14:17.887Z,16.6
2023-06-26T07:19:17.838Z,16.9
2023-06-26T07:24:17.870Z,16.8
2023-06-26T07:34:17.928Z,17.1
2023-06-26T07:44:17.949Z,17.3
2023-06-26T07:49:18.025Z,17.6
2023-06-26T07:54:18.081Z,17.9
2023-06-26T07:59:18.168Z,17.8
2023-06-26T08:04:18.615Z,17.9
2023-06-26T08:14:18.426Z,18.0
2023-06-26T08:19:18.537Z,18.1
2023-06-26T08:24:18.660Z,18.2
2023-06-26T08:29:18.805Z,18.2
2023-06-26T08:34:18.785Z,18.0
2023-06-26T08:39:18.834Z,17.9
2023-06-26T08:49:19.184Z,18.6
2023-06-26T08:54:19.348Z,18.3
2023-06-26T08:59:19.398Z,18.5
2023-06-26T09:04:19.714Z,18.4
2023-06-26T09:09:19.657Z,18.4
2023-06-26T09:14:19.874Z,18.7
2023-06-26T09:19:19.913Z,18.7
2023-06-26T09:24:20.137Z,19.3
2023-06-26T09:29:20.261Z,19.4
2023-06-26T09:34:20.395Z,19.5
2023-06-26T09:39:20.586Z,19.8
2023-06-26T09:44:20.808Z,19.7
2023-06-26T09:49:20.960Z,19.8
2023-06-26T09:54:21.145Z,20.1
2023-06-26T09:59:21.322Z,20.2
2023-06-26T10:04:21.898Z,20.1
2023-06-26T10:09:21.733Z,20.1
2023-06-26T10:14:21.938Z,20.1
2023-06-26T10:19:22.141Z,20.1
2023-06-26T10:29:22.570Z,20.3
2023-06-26T10:34:22.776Z,20.2
2023-06-26T10:39:23.036Z,20.6
2023-06-26T10:49:23.476Z,20.8
2023-06-26T10:54:23.732Z,20.9
2023-06-26T10:59:23.961Z,20.9
2023-06-26T11:04:24.314Z,21.2
2023-06-26T11:09:24.482Z,21.9
2023-06-26T11:14:24.808Z,22.1
2023-06-26T11:19:25.048Z,22.6
2023-06-26T11:29:25.658Z,22.9
2023-06-26T11:34:25.935Z,22.8
2023-06-26T11:44:26.626Z,23.4
2023-06-26T11:49:26.979Z,22.8
2023-06-26T11:59:27.649Z,22.4
2023-06-26T12:04:28.202Z,22.6
2023-06-26T12:09:28.350Z,22.0
2023-06-26T12:14:28.695Z,22.6
2023-06-26T12:19:29.001Z,22.7
2023-06-26T12:24:29.346Z,22.6
2023-06-26T12:29:29.664Z,22.7
2023-06-26T12:39:30.385Z,22.8
2023-06-26T12:44:30.724Z,22.8
2023-06-26T12:54:33.688Z,22.8
2023-06-26T13:09:34.482Z,23.5
2023-06-26T13:19:33.119Z,22.4
2023-06-26T13:24:33.497Z,22.1
2023-06-26T13:39:34.528Z,22.1
2023-06-26T13:44:41.457Z,22.4
2023-06-26T13:49:35.185Z,22.8
2023-06-26T13:54:35.549Z,22.4
2023-06-26T13:59:35.874Z,22.4
2023-06-26T14:04:36.141Z,22.5
2023-06-26T14:09:36.578Z,22.6
2023-06-26T14:14:36.810Z,22.2
2023-06-26T14:19:39.284Z,22.4
2023-06-26T14:24:37.460Z,22.4
2023-06-26T14:29:37.867Z,22.7
2023-06-26T14:34:38.240Z,22.4
2023-06-26T14:39:38.571Z,22.4
2023-06-26T14:44:38.942Z,23.2
2023-06-26T14:49:39.259Z,23.4
2023-06-26T14:54:39.672Z,23.3
2023-06-26T15:09:40.913Z,22.9
2023-06-26T15:14:41.266Z,23.2
2023-06-26T15:19:41.639Z,23.7
2023-06-26T15:24:42.040Z,23.2
2023-06-26T15:29:42.454Z,23.1
2023-06-26T15:34:42.897Z,22.8
2023-06-26T15:44:43.688Z,22.6
2023-06-26T15:49:44.102Z,22.4
2023-06-26T15:54:44.352Z,22.5
2023-06-26T15:59:44.690Z,22.6
2023-06-26T16:04:45.107Z,22.4
2023-06-26T16:09:45.466Z,22.2
2023-06-26T16:14:45.743Z,22.1
2023-06-26T16:19:46.167Z,22.1
2023-06-26T16:24:46.429Z,21.8
2023-06-26T16:29:46.758Z,21.9
2023-06-26T16:34:47.133Z,21.7
2023-06-26T16:39:50.805Z,21.7
2023-06-26T16:54:48.483Z,21.5
2023-06-26T17:09:49.536Z,21.2
2023-06-26T17:14:49.750Z,21.1
2023-06-26T17:24:50.367Z,20.7
2023-06-26T17:29:50.640Z,20.7
2023-06-26T17:34:50.966Z,20.6
2023-06-26T17:39:51.213Z,20.6
2023-06-26T17:44:51.458Z,20.6
2023-06-26T17:49:51.717Z,20.2
2023-06-26T17:54:51.916Z,20.1
2023-06-26T17:59:52.112Z,19.9
2023-06-26T18:04:52.335Z,19.9
2023-06-26T18:09:52.547Z,19.9
2023-06-26T18:14:52.849Z,19.8
2023-06-26T18:19:53.031Z,19.6
2023-06-26T18:24:53.286Z,19.6
2023-06-26T18:29:53.476Z,19.6
2023-06-26T18:39:53.893Z,19.6
2023-06-26T18:44:54.076Z,19.5
2023-06-26T18:49:54.276Z,19.4
2023-06-26T18:54:54.479Z,19.3
2023-06-26T19:04:54.999Z,19.1
2023-06-26T19:09:54.978Z,18.9
2023-06-26T19:14:55.211Z,18.9
2023-06-26T19:19:55.300Z,18.8
2023-06-26T19:24:55.487Z,18.6
2023-06-26T19:29:55.667Z,18.7
2023-06-26T19:39:56.041Z,18.3
2023-06-26T19:49:56.308Z,18.1
2023-06-26T19:54:56.475Z,18.0
2023-06-26T19:59:56.571Z,17.9
2023-06-26T20:04:56.716Z,17.9
2023-06-26T20:09:56.803Z,17.8
2023-06-26T20:14:56.947Z,17.5
2023-06-26T20:19:57.062Z,17.5
2023-06-26T20:24:57.087Z,17.5
2023-06-26T20:29:57.191Z,17.2
2023-06-26T20:34:57.284Z,17.2
2023-06-26T20:39:57.344Z,17.2
2023-06-26T20:44:57.423Z,17.1
2023-06-26T20:49:57.537Z,17.0
2023-06-26T20:54:57.628Z,16.9
2023-06-26T20:59:57.685Z,16.8
2023-06-26T21:04:57.710Z,16.8
2023-06-26T21:09:57.794Z,16.8
2023-06-26T21:14:57.948Z,16.7
2023-06-26T21:29:57.930Z,16.4
2023-06-26T21:34:57.996Z,16.5
2023-06-26T21:44:58.092Z,16.3
2023-06-26T21:49:58.126Z,16.4
2023-06-26T21:54:58.188Z,16.4
2023-06-26T21:59:58.159Z,16.2
2023-06-26T22:04:58.419Z,16.1
2023-06-26T22:09:58.200Z,16.0
2023-06-26T22:14:58.290Z,16.1
2023-06-26T22:24:58.454Z,15.9
2023-06-26T22:29:58.220Z,15.9
2023-06-26T22:34:58.304Z,15.9
2023-06-26T22:39:58.286Z,15.9
2023-06-26T22:44:58.359Z,15.9
2023-06-26T22:49:58.292Z,15.9
2023-06-26T22:55:00.908Z,15.9
2023-06-26T22:59:58.330Z,15.8
2023-06-26T23:04:58.348Z,15.8
2023-06-26T23:09:58.315Z,15.7
2023-06-26T23:14:58.389Z,15.6
2023-06-26T23:19:58.378Z,15.6
2023-06-26T23:24:58.885Z,15.5
2023-06-26T23:39:58.648Z,15.2
2023-06-26T23:44:58.415Z,15.3
2023-06-26T23:49:58.441Z,15.6
2023-06-26T23:55:00.674Z,15.4
